createdAt,value
2019-01-06T00:00:46.529Z,21.77
2019-01-06T00:03:43.153Z,25.10
2019-01-06T00:06:36.714Z,21.65
2019-01-06T00:09:28.424Z,26.17
2019-01-06T00:12:18.414Z,22.22
2019-01-06T00:15:09.418Z,22.02
2019-01-06T00:17:58.675Z,24.27
2019-01-06T00:20:49.180Z,25.45
2019-01-06T00:23:38.788Z,21.87
2019-01-06T00:26:35.487Z,20.08
2019-01-06T00:29:35.160Z,26.48
2019-01-06T00:32:31.782Z,25.77
2019-01-06T00:35:20.975Z,26.27
2019-01-06T00:38:17.467Z,24.40
2019-01-06T00:41:08.368Z,37.42
2019-01-06T00:44:17.376Z,41.25
2019-01-06T00:47:08.073Z,35.08
2019-01-06T00:49:54.510Z,32.60
2019-01-06T00:52:47.943Z,30.23
2019-01-06T00:55:37.809Z,26.55
2019-01-06T00:58:28.699Z,33.23
2019-01-06T01:01:37.313Z,34.63
2019-01-06T01:04:30.875Z,32.70
2019-01-06T01:07:20.336Z,25.20
2019-01-06T01:10:09.842Z,23.47
2019-01-06T01:12:56.638Z,24.57
2019-01-06T01:15:46.298Z,24.15
2019-01-06T01:18:34.143Z,21.40
2019-01-06T01:21:23.808Z,16.73
2019-01-06T01:24:14.307Z,19.40
2019-01-06T01:27:04.760Z,24.10
2019-01-06T01:30:10.629Z,24.67
2019-01-06T01:33:01.791Z,25.00
2019-01-06T01:36:01.214Z,37.38
2019-01-06T01:38:50.490Z,25.35
2019-01-06T01:42:09.006Z,24.92
2019-01-06T01:44:58.259Z,24.05
2019-01-06T01:47:57.657Z,23.90
2019-01-06T01:51:00.404Z,20.55
2019-01-06T01:53:50.914Z,21.87
2019-01-06T01:56:41.179Z,27.25
2019-01-06T01:59:30.463Z,23.27
2019-01-06T02:02:19.630Z,22.00
2019-01-06T02:05:22.085Z,24.30
2019-01-06T02:08:15.357Z,31.05
2019-01-06T02:11:04.383Z,26.80
2019-01-06T02:13:57.836Z,36.33
2019-01-06T02:16:55.922Z,31.48
2019-01-06T02:19:46.808Z,26.40
2019-01-06T02:22:36.051Z,24.15
2019-01-06T02:25:25.456Z,18.45
2019-01-06T02:28:25.210Z,21.62
2019-01-06T02:31:15.645Z,30.15
2019-01-06T02:34:30.140Z,70.08
2019-01-06T02:37:23.396Z,49.03
2019-01-06T02:40:13.695Z,55.55
2019-01-06T02:43:03.063Z,38.40
2019-01-06T02:46:08.931Z,44.48
2019-01-06T02:48:59.383Z,32.23
2019-01-06T02:51:48.747Z,26.62
2019-01-06T02:54:49.509Z,37.98
2019-01-06T02:57:38.119Z,33.55
2019-01-06T03:00:44.883Z,30.60
2019-01-06T03:03:38.231Z,20.12
2019-01-06T03:06:27.545Z,23.22
2019-01-06T03:09:16.067Z,24.80
2019-01-06T03:12:04.515Z,31.37
2019-01-06T03:14:58.036Z,23.02
2019-01-06T03:17:52.137Z,24.70
2019-01-06T03:20:41.700Z,27.52
2019-01-06T03:23:31.487Z,26.50
2019-01-06T03:26:41.306Z,22.45
2019-01-06T03:29:40.202Z,26.87
2019-01-06T03:32:48.868Z,28.02
2019-01-06T03:35:51.563Z,32.50
2019-01-06T03:38:35.840Z,28.90
2019-01-06T03:41:26.398Z,30.68
2019-01-06T03:44:22.892Z,24.43
2019-01-06T03:47:12.081Z,27.87
2019-01-06T03:50:08.895Z,22.42
2019-01-06T03:53:02.451Z,31.60
2019-01-06T03:56:00.810Z,31.10
2019-01-06T03:58:51.224Z,27.75
2019-01-06T04:01:34.355Z,24.23
2019-01-06T04:04:23.346Z,24.90
2019-01-06T04:07:12.376Z,27.32
2019-01-06T04:10:14.925Z,23.20
2019-01-06T04:13:04.087Z,27.98
2019-01-06T04:16:03.581Z,30.65
2019-01-06T04:19:02.874Z,27.22
2019-01-06T04:22:02.077Z,29.32
2019-01-06T04:25:07.583Z,28.20
2019-01-06T04:27:56.371Z,28.77
2019-01-06T04:30:48.538Z,28.47
2019-01-06T04:33:37.826Z,30.88
2019-01-06T04:36:46.841Z,28.80
2019-01-06T04:39:37.240Z,29.42
2019-01-06T04:42:33.653Z,27.15
2019-01-06T04:45:22.697Z,30.15
2019-01-06T04:48:18.206Z,33.63
2019-01-06T04:51:07.281Z,32.10
2019-01-06T04:53:57.873Z,35.23
2019-01-06T04:56:47.143Z,34.45
2019-01-06T04:59:36.852Z,31.02
2019-01-06T05:02:30.573Z,30.15
2019-01-06T05:05:18.847Z,29.30
2019-01-06T05:08:06.754Z,36.48
2019-01-06T05:10:56.227Z,31.35
2019-01-06T05:13:52.844Z,29.40
2019-01-06T05:16:52.359Z,30.32
2019-01-06T05:19:48.791Z,39.55
2019-01-06T05:22:39.255Z,25.02
2019-01-06T05:25:38.761Z,22.62
2019-01-06T05:28:27.818Z,22.65
2019-01-06T05:31:33.474Z,25.23
2019-01-06T05:34:22.189Z,22.00
2019-01-06T05:37:11.460Z,28.45
2019-01-06T05:40:02.575Z,29.63
2019-01-06T05:42:51.915Z,31.57
2019-01-06T05:45:51.533Z,29.75
2019-01-06T05:48:40.417Z,35.05
2019-01-06T05:51:43.140Z,35.52
2019-01-06T05:54:48.675Z,43.52
2019-01-06T05:57:38.135Z,47.50
2019-01-06T06:00:40.788Z,37.50
2019-01-06T06:03:36.618Z,44.03
2019-01-06T06:06:35.715Z,55.55
2019-01-06T06:09:41.615Z,49.77
2019-01-06T06:12:37.744Z,40.05
2019-01-06T06:15:40.211Z,30.65
2019-01-06T06:18:30.090Z,36.15
2019-01-06T06:21:20.462Z,34.27
2019-01-06T06:24:09.836Z,30.20
2019-01-06T06:27:15.876Z,29.15
2019-01-06T06:30:09.322Z,32.98
2019-01-06T06:32:55.844Z,33.75
2019-01-06T06:36:01.575Z,39.90
2019-01-06T06:38:50.929Z,30.20
2019-01-06T06:41:50.474Z,29.15
2019-01-06T06:44:36.130Z,28.47
2019-01-06T06:47:29.872Z,33.80
2019-01-06T06:50:19.544Z,26.65
2019-01-06T06:53:13.690Z,32.45
2019-01-06T06:56:10.245Z,28.60
2019-01-06T06:59:12.290Z,31.40
2019-01-06T07:03:23.309Z,31.05
2019-01-06T07:06:16.520Z,30.05
2019-01-06T07:08:52.899Z,28.77
2019-01-06T07:11:52.496Z,38.08
2019-01-06T07:15:01.443Z,32.38
2019-01-06T07:18:13.996Z,34.88
2019-01-06T07:21:11.840Z,32.83
2019-01-06T07:24:01.234Z,36.10
2019-01-06T07:26:50.799Z,31.33
2019-01-06T07:30:00.835Z,34.55
2019-01-06T07:33:03.987Z,32.38
2019-01-06T07:36:12.734Z,37.17
2019-01-06T07:39:01.530Z,31.20
2019-01-06T07:41:53.674Z,25.50
2019-01-06T07:44:46.707Z,43.48
2019-01-06T07:47:35.866Z,45.43
2019-01-06T07:50:26.807Z,42.20
2019-01-06T07:53:24.239Z,41.92
2019-01-06T07:56:13.649Z,33.98
2019-01-06T07:58:59.182Z,42.75
2019-01-06T08:01:48.986Z,37.25
2019-01-06T08:04:31.069Z,33.90
2019-01-06T08:07:30.398Z,36.88
2019-01-06T08:10:20.021Z,34.25
2019-01-06T08:13:13.366Z,37.05
2019-01-06T08:16:08.452Z,29.10
2019-01-06T08:18:59.478Z,27.07
2019-01-06T08:22:02.235Z,27.65
2019-01-06T08:24:51.925Z,44.00
2019-01-06T08:27:43.194Z,35.83
2019-01-06T08:30:50.407Z,31.68
2019-01-06T08:33:40.731Z,38.90
2019-01-06T08:36:31.656Z,21.93
2019-01-06T08:39:16.761Z,26.23
2019-01-06T08:42:13.373Z,29.30
2019-01-06T08:45:02.537Z,33.57
2019-01-06T08:47:51.589Z,29.27
2019-01-06T08:50:45.058Z,27.63
2019-01-06T08:53:54.560Z,26.50
2019-01-06T08:56:45.184Z,29.80
2019-01-06T08:59:35.771Z,39.10
2019-01-06T09:02:25.127Z,30.33
2019-01-06T09:05:17.457Z,33.53
2019-01-06T09:08:08.080Z,33.00
2019-01-06T09:11:01.720Z,34.87
2019-01-06T09:13:52.283Z,52.30
2019-01-06T09:16:41.583Z,53.70
2019-01-06T09:19:50.210Z,40.07
2019-01-06T09:22:39.854Z,36.30
2019-01-06T09:25:30.436Z,29.80
2019-01-06T09:28:27.153Z,29.27
2019-01-06T09:31:28.116Z,28.93
2019-01-06T09:34:22.360Z,30.77
2019-01-06T09:37:13.274Z,31.37
2019-01-06T09:40:07.129Z,31.53
2019-01-06T09:43:07.134Z,28.87
2019-01-06T09:45:52.623Z,30.17
2019-01-06T09:48:42.091Z,27.93
2019-01-06T09:51:32.686Z,27.63
2019-01-06T09:54:41.848Z,26.33
2019-01-06T09:57:32.608Z,26.47
2019-01-06T10:00:21.854Z,25.80
2019-01-06T10:03:09.294Z,26.57
2019-01-06T10:06:03.182Z,26.83
2019-01-06T10:08:52.735Z,26.13
2019-01-06T10:11:44.027Z,25.80
2019-01-06T10:14:33.590Z,27.60
2019-01-06T10:17:22.776Z,26.63
2019-01-06T10:20:12.545Z,25.37
2019-01-06T10:23:02.219Z,24.73
2019-01-06T10:25:50.140Z,26.43
2019-01-06T10:28:56.681Z,27.80
2019-01-06T10:31:46.165Z,26.67
2019-01-06T10:34:42.895Z,24.30
2019-01-06T10:37:46.604Z,25.50
2019-01-06T10:40:41.133Z,25.40
2019-01-06T10:43:31.241Z,25.97
2019-01-06T10:46:34.862Z,24.50
2019-01-06T10:49:25.461Z,24.30
2019-01-06T10:52:12.683Z,23.90
2019-01-06T10:55:02.865Z,24.37
2019-01-06T10:58:06.189Z,23.33
2019-01-06T11:00:55.920Z,28.67
2019-01-06T11:03:45.446Z,23.43
2019-01-06T11:06:34.836Z,25.03
2019-01-06T11:09:17.734Z,22.43
2019-01-06T11:12:20.714Z,20.43
2019-01-06T11:15:20.298Z,19.47
2019-01-06T11:18:07.855Z,20.10
2019-01-06T11:20:57.200Z,21.03
2019-01-06T11:23:47.836Z,19.83
2019-01-06T11:26:57.379Z,19.30
2019-01-06T11:30:03.569Z,19.80
2019-01-06T11:32:54.031Z,21.47
2019-01-06T11:35:56.691Z,21.27
2019-01-06T11:38:46.173Z,20.07
2019-01-06T11:41:42.694Z,24.00
2019-01-06T11:44:42.922Z,24.67
2019-01-06T11:47:39.777Z,23.43
2019-01-06T11:50:30.456Z,20.37
2019-01-06T11:53:33.700Z,20.63
2019-01-06T11:56:30.955Z,24.03
2019-01-06T11:59:21.569Z,18.83
2019-01-06T12:02:15.876Z,19.27
2019-01-06T12:05:05.813Z,17.43
2019-01-06T12:07:58.567Z,17.30
2019-01-06T12:10:48.250Z,18.17
2019-01-06T12:13:42.444Z,19.70
2019-01-06T12:16:35.953Z,14.67
2019-01-06T12:19:33.695Z,13.67
2019-01-06T12:22:24.728Z,11.43
2019-01-06T12:25:18.168Z,19.47
2019-01-06T12:28:14.778Z,13.60
2019-01-06T12:31:11.519Z,14.33
2019-01-06T12:34:02.438Z,11.33
2019-01-06T12:37:02.444Z,14.80
2019-01-06T12:39:50.591Z,15.40
2019-01-06T12:42:56.785Z,15.10
2019-01-06T12:46:05.508Z,13.47
2019-01-06T12:49:11.044Z,17.47
2019-01-06T12:52:02.756Z,16.53
2019-01-06T12:54:52.112Z,13.20
2019-01-06T12:57:52.220Z,12.97
2019-01-06T13:00:54.880Z,12.50
2019-01-06T13:03:54.485Z,14.83
2019-01-06T13:06:43.528Z,15.13
2019-01-06T13:09:43.671Z,18.83
2019-01-06T13:12:37.917Z,18.50
2019-01-06T13:15:37.753Z,16.17
2019-01-06T13:18:27.799Z,16.70
2019-01-06T13:21:33.101Z,16.47
2019-01-06T13:24:32.924Z,16.07
2019-01-06T13:27:22.827Z,14.50
2019-01-06T13:30:12.090Z,16.40
2019-01-06T13:33:05.645Z,13.93
2019-01-06T13:35:59.199Z,15.20
2019-01-06T13:38:59.223Z,17.27
2019-01-06T13:41:55.625Z,18.17
2019-01-06T13:44:46.319Z,15.03
2019-01-06T13:47:44.071Z,16.43
2019-01-06T13:50:34.068Z,13.97
2019-01-06T13:53:23.993Z,17.77
2019-01-06T13:56:15.646Z,16.07
2019-01-06T13:59:06.457Z,17.50
2019-01-06T14:02:15.936Z,15.80
2019-01-06T14:05:22.653Z,16.17
2019-01-06T14:08:12.088Z,15.50
2019-01-06T14:11:09.739Z,15.47
2019-01-06T14:13:59.826Z,15.43
2019-01-06T14:16:49.796Z,14.97
2019-01-06T14:19:52.755Z,18.53
2019-01-06T14:22:42.250Z,16.77
2019-01-06T14:25:31.938Z,14.63
2019-01-06T14:28:35.486Z,17.33
2019-01-06T14:31:25.478Z,21.60
2019-01-06T14:34:18.921Z,18.37
2019-01-06T14:37:15.570Z,16.20
2019-01-06T14:40:09.625Z,15.77
2019-01-06T14:43:03.894Z,18.67
2019-01-06T14:46:09.608Z,17.70
2019-01-06T14:49:03.426Z,16.27
2019-01-06T14:52:07.010Z,15.63
2019-01-06T14:54:56.162Z,14.10
2019-01-06T14:57:45.231Z,14.97
2019-01-06T15:00:37.012Z,15.13
2019-01-06T15:03:32.441Z,20.43
2019-01-06T15:06:35.922Z,19.33
2019-01-06T15:09:39.180Z,17.33
2019-01-06T15:12:33.167Z,16.70
2019-01-06T15:15:27.942Z,14.73
2019-01-06T15:18:18.455Z,22.20
2019-01-06T15:21:24.488Z,25.37
2019-01-06T15:24:27.541Z,20.60
2019-01-06T15:27:24.502Z,23.17
2019-01-06T15:30:14.150Z,19.80
2019-01-06T15:33:20.924Z,23.00
2019-01-06T15:36:21.972Z,21.33
2019-01-06T15:39:12.535Z,16.80
2019-01-06T15:42:01.591Z,20.07
2019-01-06T15:44:55.495Z,21.27
2019-01-06T15:47:59.431Z,18.57
2019-01-06T15:50:56.713Z,22.33
2019-01-06T15:53:57.260Z,25.70
2019-01-06T15:56:50.994Z,28.57
2019-01-06T15:59:47.102Z,32.33
2019-01-06T16:02:54.002Z,25.47
2019-01-06T16:05:47.902Z,19.03
2019-01-06T16:08:42.886Z,21.47
2019-01-06T16:11:29.626Z,22.60
2019-01-06T16:14:41.705Z,24.90
2019-01-06T16:17:35.145Z,27.17
2019-01-06T16:20:42.733Z,31.20
2019-01-06T16:23:47.126Z,35.07
2019-01-06T16:26:39.833Z,33.63
2019-01-06T16:29:52.686Z,29.87
2019-01-06T16:32:51.423Z,25.87
2019-01-06T16:35:46.841Z,32.17
2019-01-06T16:38:55.611Z,27.73
2019-01-06T16:41:53.382Z,23.87
2019-01-06T16:44:43.876Z,22.93
2019-01-06T16:47:41.521Z,22.67
2019-01-06T16:50:32.426Z,21.60
2019-01-06T16:53:28.538Z,20.33
2019-01-06T16:56:20.667Z,22.00
2019-01-06T16:59:17.107Z,18.60
2019-01-06T17:02:28.166Z,18.47
2019-01-06T17:05:15.957Z,22.80
2019-01-06T17:08:13.027Z,33.30
2019-01-06T17:11:08.419Z,34.53
2019-01-06T17:14:03.866Z,49.88
2019-01-06T17:17:09.354Z,56.63
2019-01-06T17:20:09.190Z,50.73
2019-01-06T17:23:18.897Z,55.40
2019-01-06T17:26:13.574Z,24.47
2019-01-06T17:29:04.338Z,22.55
2019-01-06T17:32:01.078Z,53.68
2019-01-06T17:35:03.560Z,49.98
2019-01-06T17:38:07.837Z,50.80
2019-01-06T17:41:09.166Z,43.05
2019-01-06T17:44:13.767Z,38.50
2019-01-06T17:47:08.152Z,46.20
2019-01-06T17:50:01.982Z,72.30
2019-01-06T17:52:53.654Z,64.20
2019-01-06T17:56:00.289Z,73.60
2019-01-06T17:58:54.166Z,58.20
2019-01-06T18:01:45.909Z,36.80
2019-01-06T18:04:49.594Z,27.93
2019-01-06T18:07:50.293Z,26.52
2019-01-06T18:10:43.438Z,26.87
2019-01-06T18:13:43.972Z,26.10
2019-01-06T18:16:42.984Z,28.50
2019-01-06T18:19:35.473Z,46.35
2019-01-06T18:22:36.424Z,44.58
2019-01-06T18:25:28.845Z,39.18
2019-01-06T18:28:20.753Z,38.60
2019-01-06T18:31:15.060Z,52.62
2019-01-06T18:34:08.174Z,40.65
2019-01-06T18:37:03.362Z,39.13
2019-01-06T18:39:58.776Z,47.05
2019-01-06T18:42:55.298Z,43.68
2019-01-06T18:45:49.406Z,33.70
2019-01-06T18:48:39.493Z,39.95
2019-01-06T18:51:42.743Z,39.73
2019-01-06T18:54:35.278Z,33.25
2019-01-06T18:57:35.799Z,33.20
2019-01-06T19:00:28.785Z,39.03
2019-01-06T19:03:26.782Z,28.30
2019-01-06T19:06:20.466Z,32.40
2019-01-06T19:09:31.793Z,29.00
2019-01-06T19:12:26.608Z,32.55
2019-01-06T19:15:32.278Z,34.08
2019-01-06T19:18:33.546Z,47.23
2019-01-06T19:21:28.019Z,48.17
2019-01-06T19:24:15.410Z,36.58
2019-01-06T19:27:05.026Z,40.23
2019-01-06T19:30:00.450Z,63.17
2019-01-06T19:32:54.832Z,73.92
2019-01-06T19:36:00.817Z,114.57
2019-01-06T19:39:06.486Z,66.85
2019-01-06T19:42:05.472Z,66.35
2019-01-06T19:45:00.448Z,77.97
2019-01-06T19:48:13.528Z,80.30
2019-01-06T19:51:15.758Z,66.22
2019-01-06T19:54:07.336Z,34.50
2019-01-06T19:57:05.310Z,35.33
2019-01-06T20:00:02.978Z,28.65
2019-01-06T20:02:57.840Z,27.48
2019-01-06T20:05:52.405Z,23.98
2019-01-06T20:08:46.707Z,25.55
2019-01-06T20:11:45.035Z,26.77
2019-01-06T20:14:45.883Z,32.50
2019-01-06T20:17:40.983Z,35.45
2019-01-06T20:20:42.142Z,38.75
2019-01-06T20:23:35.013Z,33.35
2019-01-06T20:26:40.378Z,29.23
2019-01-06T20:29:44.166Z,25.23
2019-01-06T20:32:37.400Z,23.75
2019-01-06T20:35:43.238Z,22.45
2019-01-06T20:38:35.700Z,28.02
2019-01-06T20:41:28.205Z,36.58
2019-01-06T20:44:20.373Z,33.42
2019-01-06T20:47:27.521Z,29.65
2019-01-06T20:50:18.691Z,50.38
2019-01-06T20:53:24.845Z,29.25
2019-01-06T20:56:31.424Z,29.45
2019-01-06T20:59:24.441Z,25.17
2019-01-06T21:02:18.763Z,25.23
2019-01-06T21:05:12.822Z,31.70
2019-01-06T21:08:12.758Z,33.63
2019-01-06T21:11:10.612Z,32.17
2019-01-06T21:14:13.743Z,30.45
2019-01-06T21:17:17.865Z,33.48
2019-01-06T21:20:11.937Z,35.28
2019-01-06T21:23:17.509Z,30.97
2019-01-06T21:26:10.651Z,32.10
2019-01-06T21:29:02.971Z,26.87
2019-01-06T21:31:59.222Z,29.98
2019-01-06T21:35:09.669Z,33.95
2019-01-06T21:38:01.929Z,27.60
2019-01-06T21:41:14.447Z,27.00
2019-01-06T21:44:19.147Z,25.10
2019-01-06T21:47:15.728Z,26.57
2019-01-06T21:50:08.438Z,67.53
2019-01-06T21:53:11.011Z,49.03
2019-01-06T21:56:17.243Z,39.23
2019-01-06T21:59:09.501Z,35.13
2019-01-06T22:02:06.212Z,32.63
2019-01-06T22:05:02.359Z,29.05
2019-01-06T22:07:55.927Z,47.98
2019-01-06T22:10:59.046Z,40.90
2019-01-06T22:13:55.270Z,29.48
2019-01-06T22:16:50.465Z,27.85
2019-01-06T22:20:01.231Z,29.05
2019-01-06T22:23:03.662Z,30.02
2019-01-06T22:26:00.377Z,26.37
2019-01-06T22:29:03.467Z,26.12
2019-01-06T22:31:53.157Z,35.15
2019-01-06T22:35:00.810Z,35.35
2019-01-06T22:37:54.084Z,45.83
2019-01-06T22:41:05.952Z,38.02
2019-01-06T22:44:01.136Z,31.60
2019-01-06T22:47:03.796Z,40.33
2019-01-06T22:50:03.931Z,38.02
2019-01-06T22:53:06.288Z,38.45
2019-01-06T22:56:12.007Z,39.23
2019-01-06T22:59:17.918Z,62.45
2019-01-06T23:02:10.926Z,60.55
2019-01-06T23:05:04.342Z,91.60
2019-01-06T23:07:55.322Z,109.92
2019-01-06T23:10:54.720Z,89.10
2019-01-06T23:13:57.082Z,81.55
2019-01-06T23:17:14.376Z,89.10
2019-01-06T23:20:04.413Z,77.30
2019-01-06T23:23:15.206Z,128.70
2019-01-06T23:26:04.967Z,128.97
2019-01-06T23:28:58.420Z,99.00
2019-01-06T23:31:50.440Z,86.50
2019-01-06T23:34:49.357Z,86.78
2019-01-06T23:37:40.629Z,63.92
2019-01-06T23:40:33.759Z,85.38
2019-01-06T23:43:26.981Z,72.00
2019-01-06T23:46:25.743Z,111.35
2019-01-06T23:49:20.910Z,78.07
2019-01-06T23:52:17.041Z,96.50
2019-01-06T23:55:28.697Z,143.20
2019-01-06T23:58:21.639Z,93.75
